createdAt,value
2017-10-06T00:02:27.011Z,4.55
2017-10-06T00:04:54.468Z,4.20
2017-10-06T00:07:21.918Z,4.62
2017-10-06T00:09:49.393Z,3.85
2017-10-06T00:12:16.835Z,4.20
2017-10-06T00:14:44.395Z,4.20
2017-10-06T00:17:11.853Z,4.97
2017-10-06T00:19:39.297Z,4.15
2017-10-06T00:22:06.760Z,4.45
2017-10-06T00:24:34.255Z,4.20
2017-10-06T00:27:02.467Z,4.47
2017-10-06T00:29:29.955Z,4.45
2017-10-06T00:31:57.411Z,4.15
2017-10-06T00:34:24.862Z,3.80
2017-10-06T00:36:52.318Z,4.62
2017-10-06T00:39:19.791Z,4.60
2017-10-06T00:41:47.357Z,5.12
2017-10-06T00:44:14.810Z,4.90
2017-10-06T00:46:42.367Z,4.37
2017-10-06T00:49:09.818Z,4.57
2017-10-06T00:51:37.274Z,4.70
2017-10-06T00:54:04.731Z,4.50
2017-10-06T00:56:32.180Z,4.45
2017-10-06T00:58:59.638Z,4.15
2017-10-06T01:01:27.095Z,4.80
2017-10-06T01:03:54.568Z,4.62
2017-10-06T01:06:22.020Z,4.90
2017-10-06T01:08:49.470Z,4.40
2017-10-06T01:11:16.924Z,4.30
2017-10-06T01:13:44.378Z,4.72
2017-10-06T01:16:11.839Z,4.93
2017-10-06T01:18:39.287Z,4.85
2017-10-06T01:21:06.823Z,4.68
2017-10-06T01:23:34.270Z,4.62
2017-10-06T01:26:03.420Z,4.35
2017-10-06T01:28:30.866Z,4.47
2017-10-06T01:30:58.350Z,4.70
2017-10-06T01:33:25.806Z,5.20
2017-10-06T01:35:53.367Z,5.03
2017-10-06T01:38:20.826Z,4.85
2017-10-06T01:40:48.286Z,4.60
2017-10-06T01:43:15.897Z,4.85
2017-10-06T01:45:43.339Z,5.35
2017-10-06T01:48:10.860Z,4.95
2017-10-06T01:50:38.321Z,5.10
2017-10-06T01:53:05.779Z,4.82
2017-10-06T01:55:33.230Z,5.68
2017-10-06T01:58:00.779Z,5.30
2017-10-06T02:00:28.234Z,5.32
2017-10-06T02:02:55.692Z,6.05
2017-10-06T02:05:23.167Z,6.12
2017-10-06T02:07:50.622Z,5.62
2017-10-06T02:10:18.087Z,5.85
2017-10-06T02:12:46.348Z,6.65
2017-10-06T02:15:13.795Z,5.70
2017-10-06T02:17:41.258Z,6.80
2017-10-06T02:20:08.719Z,6.18
2017-10-06T02:22:36.279Z,6.75
2017-10-06T02:25:03.796Z,5.60
2017-10-06T02:27:31.291Z,7.18
2017-10-06T02:29:58.762Z,6.32
2017-10-06T02:32:26.211Z,7.87
2017-10-06T02:34:53.773Z,7.30
2017-10-06T02:37:21.323Z,7.18
2017-10-06T02:39:48.775Z,8.07
2017-10-06T02:42:16.230Z,8.30
2017-10-06T02:44:43.687Z,6.90
2017-10-06T02:47:11.318Z,6.60
2017-10-06T02:49:38.811Z,6.93
2017-10-06T02:52:06.376Z,6.60
2017-10-06T02:54:33.947Z,6.47
2017-10-06T02:57:01.404Z,7.55
2017-10-06T02:59:28.860Z,6.20
2017-10-06T03:01:56.373Z,6.65
2017-10-06T03:04:23.829Z,6.57
2017-10-06T03:06:51.330Z,6.97
2017-10-06T03:09:18.791Z,6.40
2017-10-06T03:11:46.248Z,6.62
2017-10-06T03:14:13.699Z,5.80
2017-10-06T03:16:41.154Z,6.45
2017-10-06T03:19:08.631Z,7.28
2017-10-06T03:21:36.087Z,6.85
2017-10-06T03:24:03.539Z,6.50
2017-10-06T03:26:31.804Z,6.35
2017-10-06T03:28:59.255Z,6.87
2017-10-06T03:31:26.719Z,6.85
2017-10-06T03:33:54.319Z,7.53
2017-10-06T03:36:21.790Z,6.60
2017-10-06T03:38:49.239Z,6.60
2017-10-06T03:41:16.699Z,6.70
2017-10-06T03:43:44.160Z,6.62
2017-10-06T03:46:11.630Z,6.18
2017-10-06T03:48:39.114Z,7.35
2017-10-06T03:51:06.571Z,7.20
2017-10-06T03:53:34.038Z,6.50
2017-10-06T03:56:01.487Z,6.78
2017-10-06T03:58:29.055Z,7.00
2017-10-06T04:00:56.611Z,7.25
2017-10-06T04:03:24.071Z,6.65
2017-10-06T04:05:51.622Z,7.80
2017-10-06T04:08:19.087Z,7.30
2017-10-06T04:10:46.560Z,7.30
2017-10-06T04:13:14.794Z,7.20
2017-10-06T04:15:42.276Z,7.15
2017-10-06T04:18:09.743Z,6.70
2017-10-06T04:20:37.196Z,6.50
2017-10-06T04:23:04.647Z,6.87
2017-10-06T04:25:32.266Z,6.43
2017-10-06T04:27:59.715Z,6.70
2017-10-06T04:30:27.223Z,6.80
2017-10-06T04:32:54.678Z,6.53
2017-10-06T04:35:22.150Z,6.45
2017-10-06T04:37:50.439Z,7.30
2017-10-06T04:40:18.666Z,7.05
2017-10-06T04:42:46.122Z,6.03
2017-10-06T04:45:13.582Z,7.03
2017-10-06T04:47:41.052Z,6.40
2017-10-06T04:50:08.508Z,6.18
2017-10-06T04:52:35.970Z,6.43
2017-10-06T04:55:03.452Z,6.25
2017-10-06T04:57:30.993Z,6.60
2017-10-06T04:59:58.446Z,7.25
2017-10-06T05:02:25.945Z,6.53
2017-10-06T05:04:54.162Z,6.68
2017-10-06T05:07:21.634Z,5.60
2017-10-06T05:09:49.090Z,6.55
2017-10-06T05:12:16.550Z,5.12
2017-10-06T05:14:44.074Z,6.80
2017-10-06T05:17:11.528Z,6.95
2017-10-06T05:19:39.027Z,5.97
2017-10-06T05:22:06.497Z,6.50
2017-10-06T05:24:34.740Z,6.68
2017-10-06T05:27:02.198Z,6.90
2017-10-06T05:29:29.647Z,6.15
2017-10-06T05:31:57.130Z,6.18
2017-10-06T05:34:24.606Z,6.50
2017-10-06T05:36:52.067Z,6.62
2017-10-06T05:39:19.609Z,7.12
2017-10-06T05:41:47.067Z,6.50
2017-10-06T05:44:14.523Z,6.85
2017-10-06T05:46:41.975Z,6.75
2017-10-06T05:49:09.439Z,5.85
2017-10-06T05:51:36.895Z,6.78
2017-10-06T05:54:04.353Z,6.20
2017-10-06T05:56:31.911Z,6.87
2017-10-06T05:58:59.470Z,5.87
2017-10-06T06:01:26.994Z,6.15
2017-10-06T06:03:54.524Z,7.37
2017-10-06T06:06:22.070Z,6.75
2017-10-06T06:08:49.540Z,6.20
2017-10-06T06:11:17.751Z,5.72
2017-10-06T06:13:45.309Z,6.62
2017-10-06T06:16:12.751Z,6.07
2017-10-06T06:18:40.222Z,6.32
2017-10-06T06:21:07.700Z,6.70
2017-10-06T06:23:35.172Z,7.30
2017-10-06T06:26:02.727Z,5.93
2017-10-06T06:28:30.186Z,5.90
2017-10-06T06:30:57.662Z,5.00
2017-10-06T06:33:25.213Z,5.30
2017-10-06T06:35:52.771Z,5.12
2017-10-06T06:38:20.223Z,5.45
2017-10-06T06:40:47.779Z,5.85
2017-10-06T06:43:15.344Z,5.35
2017-10-06T06:45:42.806Z,5.05
2017-10-06T06:48:10.291Z,6.05
2017-10-06T06:50:38.510Z,4.78
2017-10-06T06:53:05.987Z,5.50
2017-10-06T06:55:33.506Z,5.55
2017-10-06T06:58:00.959Z,5.95
2017-10-06T07:00:28.406Z,5.32
2017-10-06T07:02:55.919Z,4.90
2017-10-06T07:05:23.385Z,5.40
2017-10-06T07:07:50.846Z,4.30
2017-10-06T07:10:18.405Z,5.32
2017-10-06T07:12:45.854Z,4.10
2017-10-06T07:15:13.311Z,5.53
2017-10-06T07:17:40.828Z,6.03
2017-10-06T07:20:08.352Z,5.62
2017-10-06T07:22:36.571Z,5.75
2017-10-06T07:25:04.023Z,5.07
2017-10-06T07:27:31.483Z,4.97
2017-10-06T07:29:58.983Z,4.85
2017-10-06T07:32:26.446Z,4.50
2017-10-06T07:34:53.999Z,5.82
2017-10-06T07:37:21.567Z,4.82
2017-10-06T07:39:49.168Z,4.60
2017-10-06T07:42:16.626Z,4.03
2017-10-06T07:44:44.096Z,4.37
2017-10-06T07:47:11.561Z,4.57
2017-10-06T07:49:39.026Z,3.80
2017-10-06T07:52:06.491Z,3.67
2017-10-06T07:54:34.050Z,3.60
2017-10-06T07:57:01.624Z,3.28
2017-10-06T07:59:29.090Z,3.30
2017-10-06T08:01:57.326Z,4.95
2017-10-06T08:04:24.801Z,2.90
2017-10-06T08:06:52.260Z,3.40
2017-10-06T08:09:19.737Z,3.10
2017-10-06T08:11:47.195Z,3.00
2017-10-06T08:14:14.672Z,3.87
2017-10-06T08:16:42.913Z,2.90
2017-10-06T08:19:10.374Z,3.10
2017-10-06T08:21:37.829Z,3.53
2017-10-06T08:24:05.303Z,3.20
2017-10-06T08:26:32.769Z,2.58
2017-10-06T08:29:00.995Z,2.80
2017-10-06T08:31:28.478Z,2.60
2017-10-06T08:33:55.947Z,2.90
2017-10-06T08:36:23.492Z,2.12
2017-10-06T08:38:50.951Z,3.05
2017-10-06T08:41:18.411Z,2.95
2017-10-06T08:43:45.863Z,2.40
2017-10-06T08:46:13.327Z,2.40
2017-10-06T08:48:40.787Z,2.90
2017-10-06T08:51:08.252Z,2.90
2017-10-06T08:53:35.800Z,1.95
2017-10-06T08:56:04.174Z,2.40
2017-10-06T08:58:31.735Z,1.95
2017-10-06T09:00:59.191Z,1.80
2017-10-06T09:03:26.673Z,1.80
2017-10-06T09:05:54.926Z,2.00
2017-10-06T09:08:22.482Z,2.05
2017-10-06T09:10:49.944Z,1.80
2017-10-06T09:13:17.414Z,1.87
2017-10-06T09:15:44.867Z,2.03
2017-10-06T09:18:12.330Z,1.92
2017-10-06T09:20:40.598Z,1.85
2017-10-06T09:23:08.822Z,1.95
2017-10-06T09:25:36.380Z,2.05
2017-10-06T09:28:03.897Z,2.20
2017-10-06T09:30:31.352Z,1.33
2017-10-06T09:32:58.898Z,1.60
2017-10-06T09:35:26.413Z,1.83
2017-10-06T09:37:53.856Z,1.92
2017-10-06T09:40:21.332Z,2.08
2017-10-06T09:42:48.797Z,2.55
2017-10-06T09:45:16.294Z,2.90
2017-10-06T09:47:43.755Z,1.77
2017-10-06T09:50:11.210Z,1.45
2017-10-06T09:52:38.678Z,2.90
2017-10-06T09:55:06.906Z,1.73
2017-10-06T09:57:34.452Z,1.60
2017-10-06T10:00:01.902Z,1.85
2017-10-06T10:02:29.365Z,1.70
2017-10-06T10:04:56.823Z,2.00
2017-10-06T10:07:24.382Z,2.95
2017-10-06T10:09:51.842Z,1.50
2017-10-06T10:12:19.303Z,2.30
2017-10-06T10:14:46.801Z,1.90
2017-10-06T10:17:14.264Z,1.95
2017-10-06T10:19:41.715Z,1.65
2017-10-06T10:22:09.262Z,1.67
2017-10-06T10:24:36.714Z,1.70
2017-10-06T10:27:04.183Z,1.70
2017-10-06T10:29:31.743Z,3.33
2017-10-06T10:31:59.208Z,1.60
2017-10-06T10:34:26.662Z,2.20
2017-10-06T10:36:54.128Z,2.60
2017-10-06T10:39:21.674Z,2.10
2017-10-06T10:41:49.134Z,2.20
2017-10-06T10:44:16.587Z,2.12
2017-10-06T10:46:44.142Z,1.95
2017-10-06T10:49:11.599Z,3.35
2017-10-06T10:51:39.162Z,2.17
2017-10-06T10:54:06.627Z,1.65
2017-10-06T10:56:34.087Z,1.87
2017-10-06T10:59:01.555Z,1.75
2017-10-06T11:01:29.010Z,2.03
2017-10-06T11:03:57.267Z,1.70
2017-10-06T11:06:24.889Z,1.73
2017-10-06T11:08:52.342Z,1.70
2017-10-06T11:11:19.792Z,2.20
2017-10-06T11:13:47.255Z,2.30
2017-10-06T11:16:14.726Z,2.10
2017-10-06T11:18:42.183Z,3.72
2017-10-06T11:21:09.684Z,1.75
2017-10-06T11:23:37.201Z,1.92
2017-10-06T11:26:04.655Z,4.30
2017-10-06T11:28:32.134Z,2.83
2017-10-06T11:30:59.599Z,1.48
2017-10-06T11:33:27.075Z,2.33
2017-10-06T11:35:54.631Z,2.65
2017-10-06T11:38:22.185Z,2.17
2017-10-06T11:40:49.711Z,2.45
2017-10-06T11:43:17.206Z,2.17
2017-10-06T11:45:44.766Z,3.20
2017-10-06T11:48:12.248Z,1.90
2017-10-06T11:50:40.507Z,2.20
2017-10-06T11:53:08.062Z,1.70
2017-10-06T11:55:35.620Z,2.17
2017-10-06T11:58:03.075Z,2.10
2017-10-06T12:00:30.635Z,2.35
2017-10-06T12:02:58.091Z,2.05
2017-10-06T12:05:25.570Z,2.03
2017-10-06T12:07:53.795Z,2.60
2017-10-06T12:10:21.251Z,2.25
2017-10-06T12:12:48.714Z,2.58
2017-10-06T12:15:16.208Z,1.95
2017-10-06T12:17:43.665Z,2.45
2017-10-06T12:20:11.225Z,2.35
2017-10-06T12:22:38.730Z,2.35
2017-10-06T12:25:06.231Z,2.60
2017-10-06T12:27:33.698Z,2.72
2017-10-06T12:30:01.212Z,2.60
2017-10-06T12:32:28.669Z,2.50
2017-10-06T12:34:56.135Z,2.40
2017-10-06T12:37:23.610Z,2.10
2017-10-06T12:39:51.067Z,1.95
2017-10-06T12:42:18.523Z,1.95
2017-10-06T12:44:46.002Z,2.15
2017-10-06T12:47:13.465Z,2.10
2017-10-06T12:49:41.727Z,2.12
2017-10-06T12:52:09.186Z,1.80
2017-10-06T12:54:36.653Z,1.95
2017-10-06T12:57:04.137Z,2.12
2017-10-06T12:59:31.615Z,1.33
2017-10-06T13:01:59.112Z,1.30
2017-10-06T13:04:26.576Z,1.60
2017-10-06T13:06:54.137Z,2.15
2017-10-06T13:09:21.709Z,2.10
2017-10-06T13:11:49.158Z,2.33
2017-10-06T13:14:16.615Z,1.90
2017-10-06T13:16:44.075Z,1.70
2017-10-06T13:19:11.527Z,1.83
2017-10-06T13:21:39.077Z,1.83
2017-10-06T13:24:06.636Z,2.50
2017-10-06T13:26:34.087Z,2.20
2017-10-06T13:29:01.558Z,2.85
2017-10-06T13:31:29.142Z,2.90
2017-10-06T13:33:57.388Z,3.05
2017-10-06T13:36:24.876Z,2.72
2017-10-06T13:38:53.087Z,3.75
2017-10-06T13:41:20.590Z,3.78
2017-10-06T13:43:48.053Z,3.60
2017-10-06T13:46:15.515Z,4.20
2017-10-06T13:48:43.734Z,3.60
2017-10-06T13:51:11.190Z,4.45
2017-10-06T13:53:38.678Z,3.10
2017-10-06T13:56:06.138Z,3.33
2017-10-06T13:58:33.582Z,3.53
2017-10-06T14:01:01.042Z,3.83
2017-10-06T14:03:28.491Z,3.20
2017-10-06T14:05:55.973Z,3.20
2017-10-06T14:08:23.567Z,3.60
2017-10-06T14:10:51.784Z,3.70
2017-10-06T14:13:19.254Z,3.25
2017-10-06T14:15:46.721Z,3.80
2017-10-06T14:18:14.199Z,3.67
2017-10-06T14:20:42.416Z,3.60
2017-10-06T14:23:09.905Z,1.87
2017-10-06T14:25:37.472Z,1.85
2017-10-06T14:28:05.034Z,1.55
2017-10-06T14:30:32.494Z,1.90
2017-10-06T14:32:59.957Z,1.40
2017-10-06T14:35:27.407Z,1.42
2017-10-06T14:37:55.642Z,1.90
2017-10-06T14:40:23.111Z,1.90
2017-10-06T14:42:50.558Z,1.62
2017-10-06T14:45:18.053Z,1.73
2017-10-06T14:47:45.495Z,1.52
2017-10-06T14:50:12.971Z,2.42
2017-10-06T14:52:40.423Z,1.70
2017-10-06T14:55:07.981Z,1.80
2017-10-06T14:57:35.541Z,2.45
2017-10-06T15:00:02.998Z,2.15
2017-10-06T15:02:30.446Z,4.10
2017-10-06T15:04:58.015Z,1.90
2017-10-06T15:07:25.482Z,2.65
2017-10-06T15:09:52.940Z,2.53
2017-10-06T15:12:20.378Z,2.95
2017-10-06T15:14:47.831Z,2.78
2017-10-06T15:17:15.282Z,2.58
2017-10-06T15:19:42.734Z,2.22
2017-10-06T15:22:10.194Z,2.70
2017-10-06T15:24:37.651Z,2.87
2017-10-06T15:27:05.119Z,2.25
2017-10-06T15:29:32.583Z,2.72
2017-10-06T15:32:00.051Z,3.70
2017-10-06T15:34:27.498Z,2.70
2017-10-06T15:36:55.724Z,3.80
2017-10-06T15:39:23.171Z,4.30
2017-10-06T15:41:50.748Z,3.05
2017-10-06T15:44:18.196Z,11.07
2017-10-06T15:46:45.660Z,2.90
2017-10-06T15:49:13.112Z,3.20
2017-10-06T15:51:40.625Z,2.95
2017-10-06T15:54:08.136Z,3.25
2017-10-06T15:56:35.587Z,3.00
2017-10-06T15:59:03.055Z,3.08
2017-10-06T16:01:30.523Z,3.33
2017-10-06T16:03:57.979Z,2.87
2017-10-06T16:06:25.478Z,3.08
2017-10-06T16:08:53.020Z,3.28
2017-10-06T16:11:20.495Z,3.30
2017-10-06T16:13:47.970Z,3.92
2017-10-06T16:16:16.183Z,3.47
2017-10-06T16:18:43.647Z,3.35
2017-10-06T16:21:11.158Z,2.87
2017-10-06T16:23:39.378Z,3.20
2017-10-06T16:26:06.828Z,3.95
2017-10-06T16:28:34.283Z,3.20
2017-10-06T16:31:01.742Z,3.67
2017-10-06T16:33:29.210Z,3.30
2017-10-06T16:35:56.690Z,3.25
2017-10-06T16:38:24.211Z,3.33
2017-10-06T16:40:51.650Z,3.40
2017-10-06T16:43:19.170Z,4.60
2017-10-06T16:45:46.619Z,4.40
2017-10-06T16:48:14.075Z,5.32
2017-10-06T16:50:41.538Z,3.97
2017-10-06T16:53:09.007Z,3.55
2017-10-06T16:55:36.550Z,3.80
2017-10-06T16:58:04.175Z,4.05
2017-10-06T17:00:31.681Z,4.15
2017-10-06T17:02:59.235Z,3.70
2017-10-06T17:05:26.691Z,3.20
2017-10-06T17:07:54.143Z,3.55
2017-10-06T17:10:21.604Z,3.35
2017-10-06T17:12:49.050Z,3.90
2017-10-06T17:15:16.581Z,4.65
2017-10-06T17:17:44.102Z,4.15
2017-10-06T17:20:12.331Z,3.97
2017-10-06T17:22:39.785Z,3.12
2017-10-06T17:25:07.280Z,3.20
2017-10-06T17:27:34.735Z,3.25
2017-10-06T17:30:02.193Z,3.60
2017-10-06T17:32:30.470Z,3.10
2017-10-06T17:34:57.975Z,4.72
2017-10-06T17:37:25.423Z,4.35
2017-10-06T17:39:52.879Z,3.15
2017-10-06T17:42:21.627Z,3.58
2017-10-06T17:44:49.088Z,3.42
2017-10-06T17:47:16.534Z,3.42
2017-10-06T17:49:44.008Z,3.28
2017-10-06T17:52:12.234Z,4.25
2017-10-06T17:54:39.715Z,4.60
2017-10-06T17:57:07.175Z,4.60
2017-10-06T17:59:34.635Z,4.12
2017-10-06T18:02:02.160Z,4.35
2017-10-06T18:04:29.619Z,4.35
2017-10-06T18:06:57.068Z,5.60
2017-10-06T18:09:24.542Z,4.15
2017-10-06T18:11:51.995Z,3.75
2017-10-06T18:14:19.454Z,3.67
2017-10-06T18:16:47.255Z,4.20
2017-10-06T18:19:14.716Z,4.20
2017-10-06T18:21:42.181Z,4.35
2017-10-06T18:24:09.634Z,4.50
2017-10-06T18:26:37.181Z,4.90
2017-10-06T18:29:04.638Z,4.53
2017-10-06T18:31:32.200Z,4.28
2017-10-06T18:33:59.716Z,4.95
2017-10-06T18:36:27.177Z,4.72
2017-10-06T18:38:54.675Z,4.55
2017-10-06T18:41:22.230Z,5.20
2017-10-06T18:43:49.700Z,5.03
2017-10-06T18:46:17.156Z,5.35
2017-10-06T18:48:44.707Z,6.03
2017-10-06T18:51:12.167Z,5.93
2017-10-06T18:53:39.619Z,5.55
2017-10-06T18:56:07.100Z,6.43
2017-10-06T18:58:35.322Z,6.60
2017-10-06T19:01:02.788Z,6.10
2017-10-06T19:03:30.235Z,6.43
2017-10-06T19:05:57.702Z,5.47
2017-10-06T19:08:25.176Z,6.22
2017-10-06T19:10:52.607Z,5.75
2017-10-06T19:13:20.059Z,5.55
2017-10-06T19:15:47.510Z,5.57
2017-10-06T19:18:14.963Z,5.68
2017-10-06T19:20:42.410Z,6.55
2017-10-06T19:23:09.867Z,7.28
2017-10-06T19:25:37.387Z,6.60
2017-10-06T19:28:05.661Z,6.32
2017-10-06T19:30:33.221Z,7.00
2017-10-06T19:33:00.691Z,7.97
2017-10-06T19:35:28.145Z,7.03
2017-10-06T19:37:55.690Z,6.95
2017-10-06T19:40:23.150Z,7.07
2017-10-06T19:42:50.603Z,7.37
2017-10-06T19:45:18.061Z,7.78
2017-10-06T19:47:46.347Z,8.48
2017-10-06T19:50:13.807Z,6.82
2017-10-06T19:52:41.271Z,6.87
2017-10-06T19:55:08.723Z,7.70
2017-10-06T19:57:36.191Z,6.70
2017-10-06T20:00:04.450Z,7.43
2017-10-06T20:02:31.915Z,8.60
2017-10-06T20:04:59.374Z,7.45
2017-10-06T20:07:26.871Z,8.45
2017-10-06T20:09:54.326Z,7.90
2017-10-06T20:12:21.831Z,7.57
2017-10-06T20:14:49.386Z,8.13
2017-10-06T20:17:16.838Z,7.60
2017-10-06T20:19:44.307Z,7.80
2017-10-06T20:22:11.771Z,7.68
2017-10-06T20:24:39.322Z,7.12
2017-10-06T20:27:06.788Z,7.22
2017-10-06T20:29:34.242Z,7.35
2017-10-06T20:32:01.790Z,7.00
2017-10-06T20:34:30.179Z,7.00
2017-10-06T20:36:57.653Z,8.00
2017-10-06T20:39:25.114Z,8.65
2017-10-06T20:41:53.340Z,7.68
2017-10-06T20:44:20.810Z,7.45
2017-10-06T20:46:48.284Z,7.40
2017-10-06T20:49:15.757Z,6.90
2017-10-06T20:51:43.234Z,7.37
2017-10-06T20:54:11.463Z,7.30
2017-10-06T20:56:38.922Z,6.60
2017-10-06T20:59:06.392Z,7.87
2017-10-06T21:01:33.844Z,7.55
2017-10-06T21:04:01.405Z,7.18
2017-10-06T21:06:28.863Z,8.45
2017-10-06T21:08:56.529Z,6.97
2017-10-06T21:11:23.986Z,6.95
2017-10-06T21:13:51.441Z,6.37
2017-10-06T21:16:18.895Z,6.90
2017-10-06T21:18:46.363Z,6.82
2017-10-06T21:21:13.912Z,6.75
2017-10-06T21:23:41.371Z,7.05
2017-10-06T21:26:08.842Z,7.20
2017-10-06T21:28:36.299Z,7.80
2017-10-06T21:31:04.531Z,8.07
2017-10-06T21:33:31.994Z,7.03
2017-10-06T21:35:59.507Z,6.55
2017-10-06T21:38:27.731Z,7.65
2017-10-06T21:40:55.208Z,8.00
2017-10-06T21:43:22.659Z,7.10
2017-10-06T21:45:50.230Z,8.40
2017-10-06T21:48:17.779Z,7.40
2017-10-06T21:50:45.243Z,8.90
2017-10-06T21:53:12.695Z,8.07
2017-10-06T21:55:40.157Z,7.47
2017-10-06T21:58:07.720Z,8.55
2017-10-06T22:00:35.187Z,8.93
2017-10-06T22:03:02.639Z,8.60
2017-10-06T22:05:30.124Z,7.50
2017-10-06T22:07:58.341Z,7.75
2017-10-06T22:10:25.798Z,9.55
2017-10-06T22:12:53.254Z,7.68
2017-10-06T22:15:20.735Z,7.05
2017-10-06T22:17:48.257Z,8.68
2017-10-06T22:20:15.707Z,9.10
2017-10-06T22:22:43.164Z,8.60
2017-10-06T22:25:10.626Z,8.18
2017-10-06T22:27:38.135Z,8.65
2017-10-06T22:30:05.583Z,7.65
2017-10-06T22:32:33.151Z,9.60
2017-10-06T22:35:00.619Z,8.95
2017-10-06T22:37:28.837Z,8.20
2017-10-06T22:39:56.293Z,11.38
2017-10-06T22:42:23.757Z,8.88
2017-10-06T22:44:51.251Z,9.48
2017-10-06T22:47:18.812Z,8.98
2017-10-06T22:49:46.364Z,9.07
2017-10-06T22:52:13.855Z,8.73
2017-10-06T22:54:42.101Z,8.38
2017-10-06T22:57:09.654Z,8.65
2017-10-06T22:59:37.104Z,9.00
2017-10-06T23:02:04.567Z,8.13
2017-10-06T23:04:32.131Z,8.50
2017-10-06T23:06:59.697Z,8.88
2017-10-06T23:09:27.171Z,8.30
2017-10-06T23:11:55.395Z,9.60
2017-10-06T23:14:22.846Z,9.00
2017-10-06T23:16:50.310Z,8.10
2017-10-06T23:19:17.763Z,7.70
2017-10-06T23:21:45.218Z,8.43
2017-10-06T23:24:12.697Z,8.05
2017-10-06T23:26:40.180Z,8.05
2017-10-06T23:29:07.650Z,8.05
2017-10-06T23:31:35.862Z,8.07
2017-10-06T23:34:03.365Z,8.20
2017-10-06T23:36:30.833Z,8.10
2017-10-06T23:38:58.305Z,9.43
2017-10-06T23:41:26.558Z,7.37
2017-10-06T23:43:54.023Z,7.62
2017-10-06T23:46:21.521Z,8.05
2017-10-06T23:48:48.972Z,8.20
2017-10-06T23:51:16.418Z,8.13
2017-10-06T23:53:43.877Z,7.78
2017-10-06T23:56:11.323Z,7.55
2017-10-06T23:58:39.550Z,8.02
